メインページ
METAR-TAF:

METAR-TAF

空港 :

ストックホルム・アーランダ空港

ストックホルム・アーランダ, スウェーデン

緯度: 59-39N, 経度: 017-57E, 海抜: 38m

現時点の気象観測

当レポートは37分前の02:50(UTC)に作成
東/北東の風 5kt
気温 7°C
湿度 100%
気圧 1004 hPa
視程10km以上
高度2000ftの雲はほとんどない
高度5100ftの千切れ雲あり
小雨

METAR: ESSA 140250Z 06005KT 9999 -RA FEW020 BKN051 07/07 Q1004 NOSIG

時間: 05:27 (03:27 UTC)

予報

当レポートは3時間57分前の23:30(UTC)に作成
予報は14日の 00時(UTC)から 14日の 24時(UTC)まで有効
の風 7kt
視程10km以上
高度2000ftの雲は散在している
14日の 00時(UTC)から 14日の 12時(UTC)まで一時的に
視程: 4000m
高度900ftの千切れ雲あり
高度2000ftの千切れ雲あり, 積乱雲.
14日の 06時(UTC)から 14日の 09時(UTC)まで徐々に
北/北東の風 10kt
14日の 12時(UTC)から 14日の 15時(UTC)まで一時的に
高度1200ftの千切れ雲あり
14日の 15時(UTC)から 14日の 21時(UTC)まで一時的に
視程: 4000m
14日の 22時(UTC)から 14日の 24時(UTC)まで一時的に
視程: 2000m

TAF: ESSA 132330Z 1400/1424 10007KT 9999 SCT020 TEMPO 1400/1412 4000 RA BKN009 BKN020CB BECMG 1406/1409 02010KT TEMPO 1412/1415 BKN012 TEMPO 1415/1421 4000 BR TEMPO 1422/1424 2000 BR

4,000以上の空港の気象観測と天気予報(METAR報とTAF報)

利用可能な観測所は地図上に黄色い丸と赤い丸で示す。

丸の上にカーソルを重ねると観測所名を参照できる。

次にクリックすると気象観測と天気予報を参照できる。

マップの切り替え:黒色「×」印の緑ボタンをクリックして拡大、「-」印の緑ボタンをクリックして縮小、緑色の三角印をクリックして隣りの地図に切り替え


METAR-TAF: